sensor_id;sensor_type;location;lat;lon;timestamp;temperature;humidity
31677;DHT22;18385;51.572;6.578;2023-01-10T00:01:26;8.10;73.30
31677;DHT22;18385;51.572;6.578;2023-01-10T00:03:52;8.10;73.40
31677;DHT22;18385;51.572;6.578;2023-01-10T00:06:17;8.10;73.60
31677;DHT22;18385;51.572;6.578;2023-01-10T00:08:43;8.20;73.70
31677;DHT22;18385;51.572;6.578;2023-01-10T00:11:09;8.20;73.50
31677;DHT22;18385;51.572;6.578;2023-01-10T00:13:54;8.20;73.40
31677;DHT22;18385;51.572;6.578;2023-01-10T00:16:19;8.30;73.60
31677;DHT22;18385;51.572;6.578;2023-01-10T00:18:45;8.30;73.40
31677;DHT22;18385;51.572;6.578;2023-01-10T00:21:11;8.20;73.20
31677;DHT22;18385;51.572;6.578;2023-01-10T00:23:39;8.20;73.30
31677;DHT22;18385;51.572;6.578;2023-01-10T00:26:05;8.20;73.40
31677;DHT22;18385;51.572;6.578;2023-01-10T00:28:31;8.20;73.40
31677;DHT22;18385;51.572;6.578;2023-01-10T00:31:00;8.10;73.50
31677;DHT22;18385;51.572;6.578;2023-01-10T00:33:27;8.10;73.50
31677;DHT22;18385;51.572;6.578;2023-01-10T00:35:57;8.10;73.50
31677;DHT22;18385;51.572;6.578;2023-01-10T00:38:22;8.10;73.70
31677;DHT22;18385;51.572;6.578;2023-01-10T00:40:48;8.10;73.60
31677;DHT22;18385;51.572;6.578;2023-01-10T00:43:14;8.20;73.80
31677;DHT22;18385;51.572;6.578;2023-01-10T00:45:58;8.30;73.80
31677;DHT22;18385;51.572;6.578;2023-01-10T00:48:24;8.40;73.80
31677;DHT22;18385;51.572;6.578;2023-01-10T00:50:50;8.50;73.70
31677;DHT22;18385;51.572;6.578;2023-01-10T00:53:15;8.60;73.50
31677;DHT22;18385;51.572;6.578;2023-01-10T00:55:41;8.80;73.50
31677;DHT22;18385;51.572;6.578;2023-01-10T00:58:07;8.90;73.30
31677;DHT22;18385;51.572;6.578;2023-01-10T01:00:39;9.00;73.30
31677;DHT22;18385;51.572;6.578;2023-01-10T01:03:05;9.10;73.20
31677;DHT22;18385;51.572;6.578;2023-01-10T01:05:32;9.10;73.10
31677;DHT22;18385;51.572;6.578;2023-01-10T01:07:58;9.20;73.00
31677;DHT22;18385;51.572;6.578;2023-01-10T01:10:23;9.30;73.00
31677;DHT22;18385;51.572;6.578;2023-01-10T01:13:04;9.40;72.80
31677;DHT22;18385;51.572;6.578;2023-01-10T01:15:31;9.40;72.80
31677;DHT22;18385;51.572;6.578;2023-01-10T01:17:57;9.40;72.70
31677;DHT22;18385;51.572;6.578;2023-01-10T01:20:23;9.40;72.60
31677;DHT22;18385;51.572;6.578;2023-01-10T01:22:48;9.30;72.50
31677;DHT22;18385;51.572;6.578;2023-01-10T01:25:14;9.10;72.40
31677;DHT22;18385;51.572;6.578;2023-01-10T01:27:40;9.00;72.60
31677;DHT22;18385;51.572;6.578;2023-01-10T01:30:07;8.90;72.80
31677;DHT22;18385;51.572;6.578;2023-01-10T01:32:33;8.80;72.80
31677;DHT22;18385;51.572;6.578;2023-01-10T01:34:59;8.70;73.00
31677;DHT22;18385;51.572;6.578;2023-01-10T01:37:25;8.60;73.00
31677;DHT22;18385;51.572;6.578;2023-01-10T01:39:51;8.50;73.10
31677;DHT22;18385;51.572;6.578;2023-01-10T01:42:36;8.50;74.10
31677;DHT22;18385;51.572;6.578;2023-01-10T01:47:40;8.40;73.20
31677;DHT22;18385;51.572;6.578;2023-01-10T01:50:20;8.40;73.30
31677;DHT22;18385;51.572;6.578;2023-01-10T01:52:48;8.30;73.40
31677;DHT22;18385;51.572;6.578;2023-01-10T01:55:15;8.20;73.40
31677;DHT22;18385;51.572;6.578;2023-01-10T01:57:41;8.20;73.40
31677;DHT22;18385;51.572;6.578;2023-01-10T02:00:08;8.20;73.50
31677;DHT22;18385;51.572;6.578;2023-01-10T02:02:44;8.10;73.50
31677;DHT22;18385;51.572;6.578;2023-01-10T02:05:14;8.10;73.50
31677;DHT22;18385;51.572;6.578;2023-01-10T02:07:43;8.10;73.60
31677;DHT22;18385;51.572;6.578;2023-01-10T02:10:16;8.10;73.50
31677;DHT22;18385;51.572;6.578;2023-01-10T02:12:45;8.10;73.40
31677;DHT22;18385;51.572;6.578;2023-01-10T02:15:14;8.00;73.50
31677;DHT22;18385;51.572;6.578;2023-01-10T02:17:40;8.00;73.50
31677;DHT22;18385;51.572;6.578;2023-01-10T02:20:10;7.90;73.50
31677;DHT22;18385;51.572;6.578;2023-01-10T02:39:33;7.90;73.90
31677;DHT22;18385;51.572;6.578;2023-01-10T02:42:07;8.00;73.80
31677;DHT22;18385;51.572;6.578;2023-01-10T02:44:42;8.00;73.90
31677;DHT22;18385;51.572;6.578;2023-01-10T02:47:11;8.10;73.70
31677;DHT22;18385;51.572;6.578;2023-01-10T02:49:48;8.10;73.50
31677;DHT22;18385;51.572;6.578;2023-01-10T02:52:20;8.10;73.40
31677;DHT22;18385;51.572;6.578;2023-01-10T02:54:48;8.00;73.50
31677;DHT22;18385;51.572;6.578;2023-01-10T03:05:38;7.90;73.70
31677;DHT22;18385;51.572;6.578;2023-01-10T03:10:53;7.90;73.80
31677;DHT22;18385;51.572;6.578;2023-01-10T03:13:29;7.90;73.80
31677;DHT22;18385;51.572;6.578;2023-01-10T03:15:56;7.90;73.90
31677;DHT22;18385;51.572;6.578;2023-01-10T03:18:30;7.90;73.80
31677;DHT22;18385;51.572;6.578;2023-01-10T03:20:57;7.90;73.80
31677;DHT22;18385;51.572;6.578;2023-01-10T03:23:24;8.00;73.80
31677;DHT22;18385;51.572;6.578;2023-01-10T03:25:51;8.00;73.70
31677;DHT22;18385;51.572;6.578;2023-01-10T03:28:29;8.00;73.60
31677;DHT22;18385;51.572;6.578;2023-01-10T03:31:03;8.00;73.50
31677;DHT22;18385;51.572;6.578;2023-01-10T03:33:31;8.00;73.60
31677;DHT22;18385;51.572;6.578;2023-01-10T03:41:43;7.80;73.60
31677;DHT22;18385;51.572;6.578;2023-01-10T03:44:19;7.80;73.70
31677;DHT22;18385;51.572;6.578;2023-01-10T03:49:33;7.80;73.80
31677;DHT22;18385;51.572;6.578;2023-01-10T03:51:59;7.90;73.90
31677;DHT22;18385;51.572;6.578;2023-01-10T03:54:26;7.90;73.70
31677;DHT22;18385;51.572;6.578;2023-01-10T03:56:52;8.00;73.60
31677;DHT22;18385;51.572;6.578;2023-01-10T03:59:24;8.00;73.70
31677;DHT22;18385;51.572;6.578;2023-01-10T04:01:51;8.10;73.70
31677;DHT22;18385;51.572;6.578;2023-01-10T04:04:17;8.20;73.70
31677;DHT22;18385;51.572;6.578;2023-01-10T04:06:43;8.40;73.60
31677;DHT22;18385;51.572;6.578;2023-01-10T04:09:09;8.50;73.50
31677;DHT22;18385;51.572;6.578;2023-01-10T04:11:35;8.50;73.20
31677;DHT22;18385;51.572;6.578;2023-01-10T04:14:00;8.60;73.20
31677;DHT22;18385;51.572;6.578;2023-01-10T04:16:26;8.50;72.90
31677;DHT22;18385;51.572;6.578;2023-01-10T04:18:53;8.50;72.90
31677;DHT22;18385;51.572;6.578;2023-01-10T04:21:18;8.40;72.90
31677;DHT22;18385;51.572;6.578;2023-01-10T04:23:44;8.30;73.00
31677;DHT22;18385;51.572;6.578;2023-01-10T04:26:10;8.40;73.20
31677;DHT22;18385;51.572;6.578;2023-01-10T04:28:36;8.30;73.00
31677;DHT22;18385;51.572;6.578;2023-01-10T04:31:02;8.20;73.00
31677;DHT22;18385;51.572;6.578;2023-01-10T04:33:27;8.10;73.20
31677;DHT22;18385;51.572;6.578;2023-01-10T04:35:53;8.10;74.10
31677;DHT22;18385;51.572;6.578;2023-01-10T04:38:19;8.10;73.40
31677;DHT22;18385;51.572;6.578;2023-01-10T04:40:52;8.00;73.30
31677;DHT22;18385;51.572;6.578;2023-01-10T04:43:18;8.00;73.50
31677;DHT22;18385;51.572;6.578;2023-01-10T04:45:44;7.90;73.60
31677;DHT22;18385;51.572;6.578;2023-01-10T04:48:09;7.90;73.50
31677;DHT22;18385;51.572;6.578;2023-01-10T04:50:35;7.90;73.60
31677;DHT22;18385;51.572;6.578;2023-01-10T04:53:00;7.90;73.60
31677;DHT22;18385;51.572;6.578;2023-01-10T04:55:26;7.80;73.50
31677;DHT22;18385;51.572;6.578;2023-01-10T04:57:52;7.70;73.50
31677;DHT22;18385;51.572;6.578;2023-01-10T05:00:17;7.80;73.70
31677;DHT22;18385;51.572;6.578;2023-01-10T05:02:43;7.70;73.60
31677;DHT22;18385;51.572;6.578;2023-01-10T05:05:10;7.70;73.60
31677;DHT22;18385;51.572;6.578;2023-01-10T05:07:36;7.70;73.60
31677;DHT22;18385;51.572;6.578;2023-01-10T05:10:03;7.70;73.70
31677;DHT22;18385;51.572;6.578;2023-01-10T05:12:29;7.60;73.70
31677;DHT22;18385;51.572;6.578;2023-01-10T05:14:55;7.60;73.80
31677;DHT22;18385;51.572;6.578;2023-01-10T05:17:20;7.60;73.70
31677;DHT22;18385;51.572;6.578;2023-01-10T05:19:46;7.60;73.80
31677;DHT22;18385;51.572;6.578;2023-01-10T05:22:12;7.60;73.80
31677;DHT22;18385;51.572;6.578;2023-01-10T05:24:37;7.50;73.80
31677;DHT22;18385;51.572;6.578;2023-01-10T05:27:03;7.50;73.80
31677;DHT22;18385;51.572;6.578;2023-01-10T05:29:29;7.50;73.90
31677;DHT22;18385;51.572;6.578;2023-01-10T05:31:55;7.40;73.80
31677;DHT22;18385;51.572;6.578;2023-01-10T05:34:20;7.40;74.00
31677;DHT22;18385;51.572;6.578;2023-01-10T05:36:46;7.40;73.90
31677;DHT22;18385;51.572;6.578;2023-01-10T05:39:12;7.40;73.90
31677;DHT22;18385;51.572;6.578;2023-01-10T05:41:38;7.40;73.80
31677;DHT22;18385;51.572;6.578;2023-01-10T05:44:05;7.40;73.80
31677;DHT22;18385;51.572;6.578;2023-01-10T05:46:31;7.40;73.90
31677;DHT22;18385;51.572;6.578;2023-01-10T05:48:57;7.30;74.00
31677;DHT22;18385;51.572;6.578;2023-01-10T05:51:22;7.30;74.00
31677;DHT22;18385;51.572;6.578;2023-01-10T05:53:48;7.30;74.10
31677;DHT22;18385;51.572;6.578;2023-01-10T05:56:14;7.30;74.00
31677;DHT22;18385;51.572;6.578;2023-01-10T05:58:39;7.30;74.10
31677;DHT22;18385;51.572;6.578;2023-01-10T06:01:05;7.30;74.10
31677;DHT22;18385;51.572;6.578;2023-01-10T06:03:31;7.30;74.20
31677;DHT22;18385;51.572;6.578;2023-01-10T06:05:56;7.30;74.10
31677;DHT22;18385;51.572;6.578;2023-01-10T06:08:23;7.30;74.10
31677;DHT22;18385;51.572;6.578;2023-01-10T06:10:49;7.30;74.20
31677;DHT22;18385;51.572;6.578;2023-01-10T06:13:15;7.30;74.10
31677;DHT22;18385;51.572;6.578;2023-01-10T06:15:40;7.30;74.10
31677;DHT22;18385;51.572;6.578;2023-01-10T06:18:07;7.40;74.20
31677;DHT22;18385;51.572;6.578;2023-01-10T06:20:33;7.50;74.20
31677;DHT22;18385;51.572;6.578;2023-01-10T06:22:59;7.50;74.00
31677;DHT22;18385;51.572;6.578;2023-01-10T06:25:32;7.50;73.90
31677;DHT22;18385;51.572;6.578;2023-01-10T06:28:00;7.50;74.10
31677;DHT22;18385;51.572;6.578;2023-01-10T06:30:26;7.60;74.20
31677;DHT22;18385;51.572;6.578;2023-01-10T06:32:52;7.70;74.20
31677;DHT22;18385;51.572;6.578;2023-01-10T06:35:17;7.90;74.10
31677;DHT22;18385;51.572;6.578;2023-01-10T06:37:43;8.00;74.00
31677;DHT22;18385;51.572;6.578;2023-01-10T06:40:09;8.10;73.80
31677;DHT22;18385;51.572;6.578;2023-01-10T06:42:35;8.20;73.60
31677;DHT22;18385;51.572;6.578;2023-01-10T06:45:01;8.20;73.50
31677;DHT22;18385;51.572;6.578;2023-01-10T06:47:29;8.30;73.50
31677;DHT22;18385;51.572;6.578;2023-01-10T06:49:54;8.30;73.40
31677;DHT22;18385;51.572;6.578;2023-01-10T06:52:20;8.30;73.30
31677;DHT22;18385;51.572;6.578;2023-01-10T06:54:46;8.40;73.30
31677;DHT22;18385;51.572;6.578;2023-01-10T06:57:11;8.40;73.30
31677;DHT22;18385;51.572;6.578;2023-01-10T06:59:37;8.40;73.30
31677;DHT22;18385;51.572;6.578;2023-01-10T07:02:03;8.40;73.20
31677;DHT22;18385;51.572;6.578;2023-01-10T07:04:28;8.40;73.30
31677;DHT22;18385;51.572;6.578;2023-01-10T07:06:54;8.40;73.10
31677;DHT22;18385;51.572;6.578;2023-01-10T07:09:19;8.40;73.00
31677;DHT22;18385;51.572;6.578;2023-01-10T07:11:45;8.30;73.00
31677;DHT22;18385;51.572;6.578;2023-01-10T07:14:11;8.20;73.10
31677;DHT22;18385;51.572;6.578;2023-01-10T07:16:36;8.10;73.10
31677;DHT22;18385;51.572;6.578;2023-01-10T07:19:02;8.00;73.20
31677;DHT22;18385;51.572;6.578;2023-01-10T07:21:28;8.00;73.40
31677;DHT22;18385;51.572;6.578;2023-01-10T07:23:53;8.00;73.60
31677;DHT22;18385;51.572;6.578;2023-01-10T07:26:19;8.10;73.70
31677;DHT22;18385;51.572;6.578;2023-01-10T07:28:49;8.10;73.60
31677;DHT22;18385;51.572;6.578;2023-01-10T07:31:18;8.20;73.50
31677;DHT22;18385;51.572;6.578;2023-01-10T07:33:44;8.30;73.50
31677;DHT22;18385;51.572;6.578;2023-01-10T07:36:10;8.30;73.40
31677;DHT22;18385;51.572;6.578;2023-01-10T07:38:39;8.40;73.30
31677;DHT22;18385;51.572;6.578;2023-01-10T07:41:05;8.40;73.30
31677;DHT22;18385;51.572;6.578;2023-01-10T07:43:30;8.50;73.30
31677;DHT22;18385;51.572;6.578;2023-01-10T07:46:00;8.50;73.30
31677;DHT22;18385;51.572;6.578;2023-01-10T07:48:26;8.50;73.20
31677;DHT22;18385;51.572;6.578;2023-01-10T07:50:56;8.50;73.10
31677;DHT22;18385;51.572;6.578;2023-01-10T07:53:22;8.60;73.10
31677;DHT22;18385;51.572;6.578;2023-01-10T07:55:48;8.60;73.10
31677;DHT22;18385;51.572;6.578;2023-01-10T07:58:13;8.60;73.10
31677;DHT22;18385;51.572;6.578;2023-01-10T08:00:39;8.70;73.10
31677;DHT22;18385;51.572;6.578;2023-01-10T08:03:05;8.70;73.00
31677;DHT22;18385;51.572;6.578;2023-01-10T08:05:31;8.70;73.00
31677;DHT22;18385;51.572;6.578;2023-01-10T08:07:56;8.70;72.90
31677;DHT22;18385;51.572;6.578;2023-01-10T08:10:27;8.80;73.00
31677;DHT22;18385;51.572;6.578;2023-01-10T08:12:53;8.80;72.90
31677;DHT22;18385;51.572;6.578;2023-01-10T08:15:19;8.80;72.80
31677;DHT22;18385;51.572;6.578;2023-01-10T08:17:45;8.70;72.70
31677;DHT22;18385;51.572;6.578;2023-01-10T08:20:11;8.60;72.80
31677;DHT22;18385;51.572;6.578;2023-01-10T08:22:36;8.50;72.90
31677;DHT22;18385;51.572;6.578;2023-01-10T08:25:02;8.50;73.20
31677;DHT22;18385;51.572;6.578;2023-01-10T08:27:28;8.50;73.30
31677;DHT22;18385;51.572;6.578;2023-01-10T08:29:54;8.50;73.20
31677;DHT22;18385;51.572;6.578;2023-01-10T08:32:19;8.60;73.20
31677;DHT22;18385;51.572;6.578;2023-01-10T08:34:45;8.60;73.20
31677;DHT22;18385;51.572;6.578;2023-01-10T08:37:12;8.70;73.30
31677;DHT22;18385;51.572;6.578;2023-01-10T08:39:38;8.90;73.30
31677;DHT22;18385;51.572;6.578;2023-01-10T08:42:04;9.00;73.10
31677;DHT22;18385;51.572;6.578;2023-01-10T08:44:30;9.00;73.00
31677;DHT22;18385;51.572;6.578;2023-01-10T08:46:55;9.10;72.80
31677;DHT22;18385;51.572;6.578;2023-01-10T08:49:22;9.10;72.60
31677;DHT22;18385;51.572;6.578;2023-01-10T08:51:48;9.00;72.30
31677;DHT22;18385;51.572;6.578;2023-01-10T08:54:14;8.90;72.40
31677;DHT22;18385;51.572;6.578;2023-01-10T08:56:40;8.80;72.50
31677;DHT22;18385;51.572;6.578;2023-01-10T08:59:06;8.80;72.60
31677;DHT22;18385;51.572;6.578;2023-01-10T09:01:32;8.80;72.70
31677;DHT22;18385;51.572;6.578;2023-01-10T09:03:58;8.80;72.80
31677;DHT22;18385;51.572;6.578;2023-01-10T09:06:24;8.80;72.90
31677;DHT22;18385;51.572;6.578;2023-01-10T09:08:50;8.90;73.00
31677;DHT22;18385;51.572;6.578;2023-01-10T09:11:16;8.90;72.80
31677;DHT22;18385;51.572;6.578;2023-01-10T09:13:42;9.00;72.80
31677;DHT22;18385;51.572;6.578;2023-01-10T09:16:08;9.10;72.80
31677;DHT22;18385;51.572;6.578;2023-01-10T09:18:34;9.20;72.70
31677;DHT22;18385;51.572;6.578;2023-01-10T09:21:00;9.30;72.70
31677;DHT22;18385;51.572;6.578;2023-01-10T09:23:27;9.40;73.50
31677;DHT22;18385;51.572;6.578;2023-01-10T09:25:53;9.60;72.70
31677;DHT22;18385;51.572;6.578;2023-01-10T09:28:21;9.70;72.30
31677;DHT22;18385;51.572;6.578;2023-01-10T09:30:46;9.70;72.10
31677;DHT22;18385;51.572;6.578;2023-01-10T09:33:12;9.70;72.00
31677;DHT22;18385;51.572;6.578;2023-01-10T09:35:39;9.70;71.90
31677;DHT22;18385;51.572;6.578;2023-01-10T09:38:08;9.70;72.00
31677;DHT22;18385;51.572;6.578;2023-01-10T09:41:10;9.70;72.00
31677;DHT22;18385;51.572;6.578;2023-01-10T09:46:50;9.70;72.00
31677;DHT22;18385;51.572;6.578;2023-01-10T09:49:58;9.70;72.00
31677;DHT22;18385;51.572;6.578;2023-01-10T09:52:30;9.70;72.10
31677;DHT22;18385;51.572;6.578;2023-01-10T09:55:00;9.80;72.20
31677;DHT22;18385;51.572;6.578;2023-01-10T09:57:28;9.90;72.10
31677;DHT22;18385;51.572;6.578;2023-01-10T09:59:55;10.00;72.00
31677;DHT22;18385;51.572;6.578;2023-01-10T10:05:31;10.20;71.70
31677;DHT22;18385;51.572;6.578;2023-01-10T10:08:00;10.20;71.60
31677;DHT22;18385;51.572;6.578;2023-01-10T10:10:34;10.20;71.60
31677;DHT22;18385;51.572;6.578;2023-01-10T10:16:03;10.20;71.60
31677;DHT22;18385;51.572;6.578;2023-01-10T10:21:38;10.20;71.50
31677;DHT22;18385;51.572;6.578;2023-01-10T10:26:58;10.40;71.50
31677;DHT22;18385;51.572;6.578;2023-01-10T10:32:40;10.40;71.30
31677;DHT22;18385;51.572;6.578;2023-01-10T10:35:22;10.40;71.40
31677;DHT22;18385;51.572;6.578;2023-01-10T10:37:52;10.40;71.40
31677;DHT22;18385;51.572;6.578;2023-01-10T10:40:24;10.50;71.40
31677;DHT22;18385;51.572;6.578;2023-01-10T10:42:54;10.50;71.10
31677;DHT22;18385;51.572;6.578;2023-01-10T10:48:01;10.60;71.20
31677;DHT22;18385;51.572;6.578;2023-01-10T10:50:32;10.60;71.10
31677;DHT22;18385;51.572;6.578;2023-01-10T10:53:02;10.60;71.00
31677;DHT22;18385;51.572;6.578;2023-01-10T10:55:33;10.60;71.00
31677;DHT22;18385;51.572;6.578;2023-01-10T10:58:01;10.70;71.00
31677;DHT22;18385;51.572;6.578;2023-01-10T11:00:28;10.70;71.00
31677;DHT22;18385;51.572;6.578;2023-01-10T11:03:19;10.70;70.90
31677;DHT22;18385;51.572;6.578;2023-01-10T11:05:47;10.80;70.70
31677;DHT22;18385;51.572;6.578;2023-01-10T11:08:15;10.80;70.70
31677;DHT22;18385;51.572;6.578;2023-01-10T11:10:45;10.80;70.80
31677;DHT22;18385;51.572;6.578;2023-01-10T11:15:45;10.90;70.80
31677;DHT22;18385;51.572;6.578;2023-01-10T11:18:12;10.90;70.60
31677;DHT22;18385;51.572;6.578;2023-01-10T11:20:50;10.90;70.60
31677;DHT22;18385;51.572;6.578;2023-01-10T11:23:40;11.00;70.40
31677;DHT22;18385;51.572;6.578;2023-01-10T11:26:21;11.00;70.40
31677;DHT22;18385;51.572;6.578;2023-01-10T11:28:50;11.00;70.50
31677;DHT22;18385;51.572;6.578;2023-01-10T11:31:26;11.10;70.40
31677;DHT22;18385;51.572;6.578;2023-01-10T11:33:52;11.10;70.20
31677;DHT22;18385;51.572;6.578;2023-01-10T11:36:18;11.20;70.30
31677;DHT22;18385;51.572;6.578;2023-01-10T11:39:01;11.30;70.20
31677;DHT22;18385;51.572;6.578;2023-01-10T11:41:27;11.20;69.90
31677;DHT22;18385;51.572;6.578;2023-01-10T11:44:15;11.20;70.00
31677;DHT22;18385;51.572;6.578;2023-01-10T11:46:43;11.20;70.00
31677;DHT22;18385;51.572;6.578;2023-01-10T11:49:12;11.20;70.00
31677;DHT22;18385;51.572;6.578;2023-01-10T11:51:46;11.20;69.90
31677;DHT22;18385;51.572;6.578;2023-01-10T11:54:22;11.20;70.00
31677;DHT22;18385;51.572;6.578;2023-01-10T11:57:02;11.20;69.60
31677;DHT22;18385;51.572;6.578;2023-01-10T11:59:29;11.20;69.70
31677;DHT22;18385;51.572;6.578;2023-01-10T12:02:03;11.10;69.80
31677;DHT22;18385;51.572;6.578;2023-01-10T12:04:40;11.10;69.80
31677;DHT22;18385;51.572;6.578;2023-01-10T12:07:09;11.20;69.90
31677;DHT22;18385;51.572;6.578;2023-01-10T12:14:34;11.30;69.60
31677;DHT22;18385;51.572;6.578;2023-01-10T12:17:02;11.40;69.60
31677;DHT22;18385;51.572;6.578;2023-01-10T12:19:27;11.40;69.50
31677;DHT22;18385;51.572;6.578;2023-01-10T12:21:57;11.50;69.50
31677;DHT22;18385;51.572;6.578;2023-01-10T12:24:29;11.50;70.10
31677;DHT22;18385;51.572;6.578;2023-01-10T12:26:59;11.60;69.30
31677;DHT22;18385;51.572;6.578;2023-01-10T12:29:34;11.70;69.20
31677;DHT22;18385;51.572;6.578;2023-01-10T12:32:02;11.70;69.00
31677;DHT22;18385;51.572;6.578;2023-01-10T12:34:46;11.70;69.00
31677;DHT22;18385;51.572;6.578;2023-01-10T12:37:25;11.70;69.00
31677;DHT22;18385;51.572;6.578;2023-01-10T12:40:03;11.70;69.70
31677;DHT22;18385;51.572;6.578;2023-01-10T12:42:53;11.70;68.90
31677;DHT22;18385;51.572;6.578;2023-01-10T12:45:46;11.70;68.90
31677;DHT22;18385;51.572;6.578;2023-01-10T12:48:20;11.70;69.20
31677;DHT22;18385;51.572;6.578;2023-01-10T12:51:00;11.60;69.10
31677;DHT22;18385;51.572;6.578;2023-01-10T12:53:37;11.70;69.00
31677;DHT22;18385;51.572;6.578;2023-01-10T12:56:05;11.70;69.00
31677;DHT22;18385;51.572;6.578;2023-01-10T12:58:40;11.70;68.80
31677;DHT22;18385;51.572;6.578;2023-01-10T13:01:23;11.80;68.70
31677;DHT22;18385;51.572;6.578;2023-01-10T13:03:56;11.80;68.60
31677;DHT22;18385;51.572;6.578;2023-01-10T13:06:32;11.80;68.60
31677;DHT22;18385;51.572;6.578;2023-01-10T13:09:04;11.80;68.50
31677;DHT22;18385;51.572;6.578;2023-01-10T13:11:36;11.80;68.60
31677;DHT22;18385;51.572;6.578;2023-01-10T13:14:05;11.80;68.50
31677;DHT22;18385;51.572;6.578;2023-01-10T13:21:37;11.80;68.30
31677;DHT22;18385;51.572;6.578;2023-01-10T13:24:26;11.80;68.40
31677;DHT22;18385;51.572;6.578;2023-01-10T13:27:00;11.80;68.40
31677;DHT22;18385;51.572;6.578;2023-01-10T13:29:37;11.80;68.30
31677;DHT22;18385;51.572;6.578;2023-01-10T13:32:21;11.80;68.30
31677;DHT22;18385;51.572;6.578;2023-01-10T13:34:48;11.80;68.20
31677;DHT22;18385;51.572;6.578;2023-01-10T13:37:23;11.80;68.30
31677;DHT22;18385;51.572;6.578;2023-01-10T13:40:00;11.80;68.10
31677;DHT22;18385;51.572;6.578;2023-01-10T13:42:34;11.80;68.20
31677;DHT22;18385;51.572;6.578;2023-01-10T13:45:29;11.80;68.00
31677;DHT22;18385;51.572;6.578;2023-01-10T13:48:00;11.90;68.20
31677;DHT22;18385;51.572;6.578;2023-01-10T14:01:34;12.00;67.90
31677;DHT22;18385;51.572;6.578;2023-01-10T14:04:27;11.90;67.80
31677;DHT22;18385;51.572;6.578;2023-01-10T14:07:00;11.90;67.70
31677;DHT22;18385;51.572;6.578;2023-01-10T14:09:31;11.90;67.70
31677;DHT22;18385;51.572;6.578;2023-01-10T14:11:59;12.00;67.70
31677;DHT22;18385;51.572;6.578;2023-01-10T14:14:35;11.90;67.40
31677;DHT22;18385;51.572;6.578;2023-01-10T14:17:23;12.00;67.50
31677;DHT22;18385;51.572;6.578;2023-01-10T14:20:16;12.00;67.50
31677;DHT22;18385;51.572;6.578;2023-01-10T14:23:03;12.00;67.50
31677;DHT22;18385;51.572;6.578;2023-01-10T14:25:35;11.90;67.30
31677;DHT22;18385;51.572;6.578;2023-01-10T14:28:03;11.90;67.30
31677;DHT22;18385;51.572;6.578;2023-01-10T14:30:32;11.90;67.30
31677;DHT22;18385;51.572;6.578;2023-01-10T14:33:15;12.00;67.30
31677;DHT22;18385;51.572;6.578;2023-01-10T14:35:45;12.00;67.00
31677;DHT22;18385;51.572;6.578;2023-01-10T14:38:25;11.90;67.10
31677;DHT22;18385;51.572;6.578;2023-01-10T14:40:56;12.00;67.00
31677;DHT22;18385;51.572;6.578;2023-01-10T14:43:26;12.00;66.90
31677;DHT22;18385;51.572;6.578;2023-01-10T14:45:56;11.90;66.80
31677;DHT22;18385;51.572;6.578;2023-01-10T14:48:40;11.90;67.30
31677;DHT22;18385;51.572;6.578;2023-01-10T14:51:17;11.80;67.00
31677;DHT22;18385;51.572;6.578;2023-01-10T14:53:46;11.80;67.00
31677;DHT22;18385;51.572;6.578;2023-01-10T14:56:23;11.80;67.00
31677;DHT22;18385;51.572;6.578;2023-01-10T14:58:49;11.90;66.90
31677;DHT22;18385;51.572;6.578;2023-01-10T15:01:26;11.90;66.70
31677;DHT22;18385;51.572;6.578;2023-01-10T15:03:53;11.90;66.60
31677;DHT22;18385;51.572;6.578;2023-01-10T15:06:19;11.90;66.60
31677;DHT22;18385;51.572;6.578;2023-01-10T15:08:59;11.80;66.40
31677;DHT22;18385;51.572;6.578;2023-01-10T15:11:26;11.80;66.40
31677;DHT22;18385;51.572;6.578;2023-01-10T15:13:55;11.80;66.40
31677;DHT22;18385;51.572;6.578;2023-01-10T15:16:22;11.80;66.40
31677;DHT22;18385;51.572;6.578;2023-01-10T15:18:49;11.70;66.20
31677;DHT22;18385;51.572;6.578;2023-01-10T15:21:16;11.70;66.30
31677;DHT22;18385;51.572;6.578;2023-01-10T15:23:46;11.70;66.40
31677;DHT22;18385;51.572;6.578;2023-01-10T15:29:12;11.70;66.10
31677;DHT22;18385;51.572;6.578;2023-01-10T15:31:39;11.70;66.20
31677;DHT22;18385;51.572;6.578;2023-01-10T15:34:12;11.70;66.50
31677;DHT22;18385;51.572;6.578;2023-01-10T15:36:54;11.60;66.20
31677;DHT22;18385;51.572;6.578;2023-01-10T15:39:22;11.50;66.00
31677;DHT22;18385;51.572;6.578;2023-01-10T15:41:53;11.40;66.00
31677;DHT22;18385;51.572;6.578;2023-01-10T15:44:33;11.30;66.20
31677;DHT22;18385;51.572;6.578;2023-01-10T15:46:59;11.20;66.30
31677;DHT22;18385;51.572;6.578;2023-01-10T15:49:25;11.10;66.40
31677;DHT22;18385;51.572;6.578;2023-01-10T15:51:52;11.00;66.60
31677;DHT22;18385;51.572;6.578;2023-01-10T16:02:32;10.90;66.70
31677;DHT22;18385;51.572;6.578;2023-01-10T16:05:07;10.80;66.70
31677;DHT22;18385;51.572;6.578;2023-01-10T16:07:35;10.80;66.80
31677;DHT22;18385;51.572;6.578;2023-01-10T16:10:26;10.80;66.90
31677;DHT22;18385;51.572;6.578;2023-01-10T16:12:52;10.80;67.00
31677;DHT22;18385;51.572;6.578;2023-01-10T16:15:51;10.70;67.00
31677;DHT22;18385;51.572;6.578;2023-01-10T16:18:17;10.70;67.10
31677;DHT22;18385;51.572;6.578;2023-01-10T16:20:43;10.70;67.20
31677;DHT22;18385;51.572;6.578;2023-01-10T16:23:17;10.70;67.10
31677;DHT22;18385;51.572;6.578;2023-01-10T16:25:46;10.60;67.20
31677;DHT22;18385;51.572;6.578;2023-01-10T16:28:17;10.60;67.30
31677;DHT22;18385;51.572;6.578;2023-01-10T16:30:43;10.60;67.30
31677;DHT22;18385;51.572;6.578;2023-01-10T16:33:24;10.50;67.20
31677;DHT22;18385;51.572;6.578;2023-01-10T16:35:53;10.50;67.40
31677;DHT22;18385;51.572;6.578;2023-01-10T16:38:20;10.40;67.40
31677;DHT22;18385;51.572;6.578;2023-01-10T16:40:50;10.40;67.40
31677;DHT22;18385;51.572;6.578;2023-01-10T16:43:17;10.40;67.50
31677;DHT22;18385;51.572;6.578;2023-01-10T16:45:48;10.40;67.60
31677;DHT22;18385;51.572;6.578;2023-01-10T16:48:14;10.30;67.60
31677;DHT22;18385;51.572;6.578;2023-01-10T16:50:40;10.30;67.70
31677;DHT22;18385;51.572;6.578;2023-01-10T16:53:06;10.30;67.70
31677;DHT22;18385;51.572;6.578;2023-01-10T16:55:48;10.30;67.70
31677;DHT22;18385;51.572;6.578;2023-01-10T16:58:15;10.30;67.80
31677;DHT22;18385;51.572;6.578;2023-01-10T17:00:42;10.30;67.80
31677;DHT22;18385;51.572;6.578;2023-01-10T17:03:17;10.20;67.90
31677;DHT22;18385;51.572;6.578;2023-01-10T17:05:43;10.20;67.90
31677;DHT22;18385;51.572;6.578;2023-01-10T17:08:20;10.20;68.00
31677;DHT22;18385;51.572;6.578;2023-01-10T17:10:49;10.20;68.10
31677;DHT22;18385;51.572;6.578;2023-01-10T17:13:21;10.10;68.00
31677;DHT22;18385;51.572;6.578;2023-01-10T17:15:48;10.10;68.20
31677;DHT22;18385;51.572;6.578;2023-01-10T17:18:14;10.10;68.20
31677;DHT22;18385;51.572;6.578;2023-01-10T17:20:39;10.00;68.30
31677;DHT22;18385;51.572;6.578;2023-01-10T17:23:05;10.00;68.40
31677;DHT22;18385;51.572;6.578;2023-01-10T17:25:31;10.00;68.40
31677;DHT22;18385;51.572;6.578;2023-01-10T17:27:56;10.00;68.30
31677;DHT22;18385;51.572;6.578;2023-01-10T17:30:22;10.00;68.40